sensor_id;sensor_type;location;lat;lon;timestamp;P1;durP1;ratioP1;P2;durP2;ratioP2
62479;SDS011;48526;48.846;2.322;2022-11-20T00:02:17;8.50;;;5.00;;
62479;SDS011;48526;48.846;2.322;2022-11-20T00:04:42;5.75;;;5.00;;
62479;SDS011;48526;48.846;2.322;2022-11-20T00:07:07;4.00;;;4.00;;
62479;SDS011;48526;48.846;2.322;2022-11-20T00:09:33;6.50;;;5.00;;
62479;SDS011;48526;48.846;2.322;2022-11-20T00:11:58;10.25;;;6.75;;
62479;SDS011;48526;48.846;2.322;2022-11-20T00:14:24;8.50;;;6.75;;
62479;SDS011;48526;48.846;2.322;2022-11-20T00:16:49;6.50;;;5.25;;
62479;SDS011;48526;48.846;2.322;2022-11-20T00:19:14;7.00;;;7.00;;
62479;SDS011;48526;48.846;2.322;2022-11-20T00:21:40;5.00;;;3.50;;
62479;SDS011;48526;48.846;2.322;2022-11-20T00:24:07;6.25;;;5.25;;
62479;SDS011;48526;48.846;2.322;2022-11-20T00:26:33;5.50;;;4.50;;
62479;SDS011;48526;48.846;2.322;2022-11-20T00:29:00;6.50;;;5.25;;
62479;SDS011;48526;48.846;2.322;2022-11-20T05:02:54;1.00;;;0.00;;
62479;SDS011;48526;48.846;2.322;2022-11-20T05:05:20;2.25;;;2.25;;
62479;SDS011;48526;48.846;2.322;2022-11-20T05:07:45;5.75;;;5.75;;
62479;SDS011;48526;48.846;2.322;2022-11-20T05:10:12;2.00;;;2.00;;
62479;SDS011;48526;48.846;2.322;2022-11-20T05:12:37;4.00;;;2.00;;
62479;SDS011;48526;48.846;2.322;2022-11-20T05:15:03;2.25;;;2.25;;
62479;SDS011;48526;48.846;2.322;2022-11-20T05:17:28;4.50;;;2.00;;
62479;SDS011;48526;48.846;2.322;2022-11-20T05:19:54;2.25;;;2.00;;
62479;SDS011;48526;48.846;2.322;2022-11-20T05:22:19;3.00;;;2.25;;
62479;SDS011;48526;48.846;2.322;2022-11-20T05:24:44;2.00;;;2.00;;
62479;SDS011;48526;48.846;2.322;2022-11-20T05:27:10;6.00;;;2.75;;
62479;SDS011;48526;48.846;2.322;2022-11-20T05:29:35;2.25;;;1.00;;
62479;SDS011;48526;48.846;2.322;2022-11-20T05:32:00;2.50;;;2.50;;
62479;SDS011;48526;48.846;2.322;2022-11-20T05:34:26;2.00;;;2.00;;
62479;SDS011;48526;48.846;2.322;2022-11-20T05:36:51;2.00;;;2.00;;
62479;SDS011;48526;48.846;2.322;2022-11-20T05:39:17;1.25;;;1.25;;
62479;SDS011;48526;48.846;2.322;2022-11-20T05:41:42;7.00;;;5.50;;
62479;SDS011;48526;48.846;2.322;2022-11-20T05:44:09;3.00;;;1.50;;
62479;SDS011;48526;48.846;2.322;2022-11-20T05:46:35;3.00;;;2.50;;
62479;SDS011;48526;48.846;2.322;2022-11-20T05:49:01;5.75;;;2.00;;
62479;SDS011;48526;48.846;2.322;2022-11-20T05:51:26;2.25;;;2.25;;
62479;SDS011;48526;48.846;2.322;2022-11-20T05:53:52;2.00;;;2.00;;
62479;SDS011;48526;48.846;2.322;2022-11-20T05:56:18;1.00;;;1.00;;
62479;SDS011;48526;48.846;2.322;2022-11-20T05:58:45;3.50;;;3.50;;
62479;SDS011;48526;48.846;2.322;2022-11-20T06:03:38;3.50;;;3.50;;
62479;SDS011;48526;48.846;2.322;2022-11-20T06:06:04;5.00;;;5.00;;
62479;SDS011;48526;48.846;2.322;2022-11-20T06:08:30;7.00;;;3.00;;
62479;SDS011;48526;48.846;2.322;2022-11-20T06:10:56;3.00;;;3.00;;
62479;SDS011;48526;48.846;2.322;2022-11-20T06:13:22;6.00;;;2.00;;
62479;SDS011;48526;48.846;2.322;2022-11-20T06:15:51;5.00;;;3.00;;
62479;SDS011;48526;48.846;2.322;2022-11-20T06:18:17;4.25;;;2.75;;
62479;SDS011;48526;48.846;2.322;2022-11-20T06:20:43;4.75;;;3.50;;
62479;SDS011;48526;48.846;2.322;2022-11-20T06:23:09;3.00;;;2.25;;
62479;SDS011;48526;48.846;2.322;2022-11-20T06:25:37;2.25;;;2.00;;
62479;SDS011;48526;48.846;2.322;2022-11-20T06:28:04;5.00;;;4.50;;
62479;SDS011;48526;48.846;2.322;2022-11-20T06:30:29;4.75;;;4.00;;
62479;SDS011;48526;48.846;2.322;2022-11-20T06:32:55;5.50;;;2.75;;
62479;SDS011;48526;48.846;2.322;2022-11-20T06:35:20;2.75;;;2.75;;
62479;SDS011;48526;48.846;2.322;2022-11-20T06:37:45;5.50;;;4.50;;
62479;SDS011;48526;48.846;2.322;2022-11-20T06:40:11;9.00;;;5.25;;
62479;SDS011;48526;48.846;2.322;2022-11-20T06:42:37;3.00;;;3.00;;
62479;SDS011;48526;48.846;2.322;2022-11-20T06:45:02;4.00;;;2.50;;
62479;SDS011;48526;48.846;2.322;2022-11-20T06:47:28;2.50;;;2.50;;
62479;SDS011;48526;48.846;2.322;2022-11-20T06:49:53;5.00;;;4.50;;
62479;SDS011;48526;48.846;2.322;2022-11-20T06:52:18;10.25;;;4.50;;
62479;SDS011;48526;48.846;2.322;2022-11-20T06:54:44;7.75;;;5.00;;
62479;SDS011;48526;48.846;2.322;2022-11-20T06:57:09;9.25;;;5.25;;
62479;SDS011;48526;48.846;2.322;2022-11-20T06:59:35;6.25;;;6.00;;
62479;SDS011;48526;48.846;2.322;2022-11-20T07:02:00;6.00;;;5.75;;
62479;SDS011;48526;48.846;2.322;2022-11-20T07:04:25;5.75;;;5.50;;
62479;SDS011;48526;48.846;2.322;2022-11-20T07:06:51;8.00;;;5.25;;
62479;SDS011;48526;48.846;2.322;2022-11-20T07:09:16;6.75;;;4.00;;
62479;SDS011;48526;48.846;2.322;2022-11-20T07:11:42;8.00;;;6.00;;
62479;SDS011;48526;48.846;2.322;2022-11-20T07:14:07;3.00;;;3.00;;
62479;SDS011;48526;48.846;2.322;2022-11-20T07:16:32;7.00;;;6.00;;
62479;SDS011;48526;48.846;2.322;2022-11-20T07:18:58;7.50;;;6.50;;
62479;SDS011;48526;48.846;2.322;2022-11-20T07:21:23;6.00;;;5.00;;
62479;SDS011;48526;48.846;2.322;2022-11-20T07:23:48;6.00;;;6.00;;
62479;SDS011;48526;48.846;2.322;2022-11-20T07:26:14;4.00;;;4.00;;
62479;SDS011;48526;48.846;2.322;2022-11-20T07:28:39;7.50;;;7.50;;
62479;SDS011;48526;48.846;2.322;2022-11-20T07:31:05;5.00;;;5.00;;
62479;SDS011;48526;48.846;2.322;2022-11-20T07:33:31;6.00;;;5.00;;
62479;SDS011;48526;48.846;2.322;2022-11-20T07:36:00;10.00;;;7.75;;
62479;SDS011;48526;48.846;2.322;2022-11-20T07:38:26;6.50;;;4.50;;
62479;SDS011;48526;48.846;2.322;2022-11-20T07:40:58;5.00;;;4.50;;
62479;SDS011;48526;48.846;2.322;2022-11-20T07:43:26;3.50;;;2.75;;
62479;SDS011;48526;48.846;2.322;2022-11-20T07:45:51;5.50;;;4.25;;
62479;SDS011;48526;48.846;2.322;2022-11-20T07:48:17;3.00;;;3.00;;
62479;SDS011;48526;48.846;2.322;2022-11-20T07:50:42;3.00;;;3.00;;
62479;SDS011;48526;48.846;2.322;2022-11-20T07:53:07;5.00;;;3.00;;
62479;SDS011;48526;48.846;2.322;2022-11-20T07:55:33;6.00;;;6.00;;
62479;SDS011;48526;48.846;2.322;2022-11-20T07:57:58;5.00;;;5.00;;
62479;SDS011;48526;48.846;2.322;2022-11-20T08:00:24;7.75;;;6.00;;
62479;SDS011;48526;48.846;2.322;2022-11-20T08:02:51;2.00;;;2.00;;
62479;SDS011;48526;48.846;2.322;2022-11-20T08:05:16;3.00;;;3.00;;
62479;SDS011;48526;48.846;2.322;2022-11-20T08:07:42;5.00;;;3.00;;
62479;SDS011;48526;48.846;2.322;2022-11-20T08:10:09;7.25;;;4.50;;
62479;SDS011;48526;48.846;2.322;2022-11-20T08:12:35;6.50;;;4.50;;
62479;SDS011;48526;48.846;2.322;2022-11-20T08:15:19;5.00;;;5.00;;
62479;SDS011;48526;48.846;2.322;2022-11-20T08:17:44;3.50;;;3.50;;
62479;SDS011;48526;48.846;2.322;2022-11-20T08:20:10;6.00;;;5.00;;
62479;SDS011;48526;48.846;2.322;2022-11-20T08:22:35;3.50;;;3.50;;
62479;SDS011;48526;48.846;2.322;2022-11-20T08:25:01;5.25;;;5.00;;
62479;SDS011;48526;48.846;2.322;2022-11-20T08:27:26;4.00;;;4.00;;
62479;SDS011;48526;48.846;2.322;2022-11-20T08:29:52;7.25;;;4.75;;
62479;SDS011;48526;48.846;2.322;2022-11-20T08:32:17;7.25;;;3.00;;
62479;SDS011;48526;48.846;2.322;2022-11-20T08:34:42;6.75;;;6.75;;
62479;SDS011;48526;48.846;2.322;2022-11-20T08:37:08;7.75;;;6.00;;
62479;SDS011;48526;48.846;2.322;2022-11-20T08:39:33;12.75;;;5.00;;
62479;SDS011;48526;48.846;2.322;2022-11-20T08:41:58;5.00;;;5.00;;
62479;SDS011;48526;48.846;2.322;2022-11-20T08:44:24;4.00;;;4.00;;
62479;SDS011;48526;48.846;2.322;2022-11-20T08:46:49;3.50;;;3.50;;
62479;SDS011;48526;48.846;2.322;2022-11-20T08:49:15;7.00;;;5.00;;
62479;SDS011;48526;48.846;2.322;2022-11-20T08:51:40;6.00;;;5.00;;
62479;SDS011;48526;48.846;2.322;2022-11-20T08:54:07;5.25;;;3.50;;
62479;SDS011;48526;48.846;2.322;2022-11-20T08:56:32;8.25;;;6.25;;
62479;SDS011;48526;48.846;2.322;2022-11-20T08:58:58;5.00;;;5.00;;
62479;SDS011;48526;48.846;2.322;2022-11-20T09:01:27;11.00;;;7.25;;
62479;SDS011;48526;48.846;2.322;2022-11-20T09:03:54;7.75;;;6.00;;
62479;SDS011;48526;48.846;2.322;2022-11-20T09:06:21;6.00;;;6.00;;
62479;SDS011;48526;48.846;2.322;2022-11-20T09:08:46;10.00;;;10.00;;
62479;SDS011;48526;48.846;2.322;2022-11-20T09:11:11;9.50;;;9.00;;
62479;SDS011;48526;48.846;2.322;2022-11-20T09:13:37;12.00;;;9.00;;
62479;SDS011;48526;48.846;2.322;2022-11-20T09:16:03;10.50;;;10.50;;
62479;SDS011;48526;48.846;2.322;2022-11-20T09:18:33;13.50;;;10.25;;
62479;SDS011;48526;48.846;2.322;2022-11-20T09:21:02;9.25;;;6.25;;
62479;SDS011;48526;48.846;2.322;2022-11-20T09:23:33;5.75;;;5.00;;
62479;SDS011;48526;48.846;2.322;2022-11-20T09:26:03;6.00;;;5.50;;
62479;SDS011;48526;48.846;2.322;2022-11-20T09:28:30;6.25;;;6.25;;
62479;SDS011;48526;48.846;2.322;2022-11-20T09:30:56;8.00;;;7.00;;
62479;SDS011;48526;48.846;2.322;2022-11-20T09:33:21;7.75;;;6.25;;
62479;SDS011;48526;48.846;2.322;2022-11-20T09:35:48;7.50;;;7.00;;
62479;SDS011;48526;48.846;2.322;2022-11-20T09:38:13;11.25;;;7.00;;
62479;SDS011;48526;48.846;2.322;2022-11-20T09:46:29;7.25;;;7.00;;
62479;SDS011;48526;48.846;2.322;2022-11-20T09:51:46;6.00;;;6.00;;
62479;SDS011;48526;48.846;2.322;2022-11-20T09:56:45;12.25;;;10.75;;
62479;SDS011;48526;48.846;2.322;2022-11-20T09:59:26;15.75;;;9.25;;
62479;SDS011;48526;48.846;2.322;2022-11-20T10:01:57;8.00;;;7.50;;
62479;SDS011;48526;48.846;2.322;2022-11-20T10:04:23;11.75;;;9.75;;
62479;SDS011;48526;48.846;2.322;2022-11-20T10:07:04;13.75;;;10.50;;
62479;SDS011;48526;48.846;2.322;2022-11-20T10:09:37;10.00;;;8.00;;
62479;SDS011;48526;48.846;2.322;2022-11-20T10:23:08;7.00;;;7.00;;
62479;SDS011;48526;48.846;2.322;2022-11-20T10:25:47;12.00;;;7.00;;
62479;SDS011;48526;48.846;2.322;2022-11-20T10:31:02;5.75;;;2.50;;
62479;SDS011;48526;48.846;2.322;2022-11-20T10:33:29;6.75;;;6.75;;
62479;SDS011;48526;48.846;2.322;2022-11-20T10:36:15;7.00;;;6.00;;
62479;SDS011;48526;48.846;2.322;2022-11-20T10:38:45;11.00;;;7.75;;
62479;SDS011;48526;48.846;2.322;2022-11-20T10:41:25;8.25;;;7.50;;
62479;SDS011;48526;48.846;2.322;2022-11-20T10:44:09;9.75;;;7.25;;
62479;SDS011;48526;48.846;2.322;2022-11-20T10:46:43;8.25;;;6.25;;
62479;SDS011;48526;48.846;2.322;2022-11-20T10:49:11;6.25;;;5.25;;
62479;SDS011;48526;48.846;2.322;2022-11-20T10:51:44;9.50;;;7.00;;
62479;SDS011;48526;48.846;2.322;2022-11-20T10:54:19;6.50;;;6.50;;
62479;SDS011;48526;48.846;2.322;2022-11-20T10:56:51;8.50;;;6.75;;
62479;SDS011;48526;48.846;2.322;2022-11-20T11:02:23;8.00;;;6.00;;
62479;SDS011;48526;48.846;2.322;2022-11-20T11:04:55;8.25;;;6.50;;
62479;SDS011;48526;48.846;2.322;2022-11-20T11:07:22;12.75;;;8.00;;
62479;SDS011;48526;48.846;2.322;2022-11-20T11:09:57;5.50;;;5.50;;
62479;SDS011;48526;48.846;2.322;2022-11-20T11:12:26;5.25;;;4.25;;
62479;SDS011;48526;48.846;2.322;2022-11-20T11:14:54;6.00;;;3.00;;
62479;SDS011;48526;48.846;2.322;2022-11-20T11:17:22;4.25;;;3.50;;
62479;SDS011;48526;48.846;2.322;2022-11-20T11:20:05;2.75;;;2.75;;
62479;SDS011;48526;48.846;2.322;2022-11-20T11:22:46;8.00;;;5.50;;
62479;SDS011;48526;48.846;2.322;2022-11-20T11:25:20;6.00;;;4.75;;
62479;SDS011;48526;48.846;2.322;2022-11-20T11:27:47;3.50;;;3.50;;
62479;SDS011;48526;48.846;2.322;2022-11-20T11:30:13;2.00;;;2.00;;
62479;SDS011;48526;48.846;2.322;2022-11-20T11:32:41;2.50;;;2.50;;
62479;SDS011;48526;48.846;2.322;2022-11-20T11:35:11;3.00;;;3.00;;
62479;SDS011;48526;48.846;2.322;2022-11-20T11:37:47;2.75;;;2.50;;
62479;SDS011;48526;48.846;2.322;2022-11-20T11:40:14;2.00;;;2.00;;
62479;SDS011;48526;48.846;2.322;2022-11-20T11:42:43;2.50;;;2.50;;
62479;SDS011;48526;48.846;2.322;2022-11-20T11:45:14;6.25;;;2.25;;
62479;SDS011;48526;48.846;2.322;2022-11-20T11:47:44;13.50;;;10.50;;
62479;SDS011;48526;48.846;2.322;2022-11-20T11:50:14;5.00;;;5.00;;
62479;SDS011;48526;48.846;2.322;2022-11-20T11:55:07;7.00;;;3.00;;
62479;SDS011;48526;48.846;2.322;2022-11-20T12:00:11;7.25;;;6.25;;
62479;SDS011;48526;48.846;2.322;2022-11-20T12:07:39;3.00;;;3.00;;
62479;SDS011;48526;48.846;2.322;2022-11-20T12:10:13;7.00;;;3.00;;
62479;SDS011;48526;48.846;2.322;2022-11-20T12:12:42;6.75;;;5.00;;
62479;SDS011;48526;48.846;2.322;2022-11-20T12:15:11;3.00;;;3.00;;
62479;SDS011;48526;48.846;2.322;2022-11-20T12:17:37;3.00;;;3.00;;
62479;SDS011;48526;48.846;2.322;2022-11-20T12:20:02;2.75;;;2.75;;
62479;SDS011;48526;48.846;2.322;2022-11-20T12:25:20;5.00;;;2.50;;
62479;SDS011;48526;48.846;2.322;2022-11-20T12:27:56;5.75;;;4.75;;
62479;SDS011;48526;48.846;2.322;2022-11-20T12:33:43;5.25;;;3.25;;
62479;SDS011;48526;48.846;2.322;2022-11-20T12:36:17;7.75;;;5.00;;
62479;SDS011;48526;48.846;2.322;2022-11-20T12:41:40;7.75;;;6.00;;
62479;SDS011;48526;48.846;2.322;2022-11-20T12:50:41;3.75;;;3.25;;
62479;SDS011;48526;48.846;2.322;2022-11-20T13:07:32;1.50;;;1.50;;
62479;SDS011;48526;48.846;2.322;2022-11-20T13:09:58;5.00;;;5.00;;
62479;SDS011;48526;48.846;2.322;2022-11-20T13:12:37;7.25;;;4.00;;
62479;SDS011;48526;48.846;2.322;2022-11-20T13:17:57;6.00;;;5.25;;
62479;SDS011;48526;48.846;2.322;2022-11-20T13:20:24;8.00;;;6.50;;
62479;SDS011;48526;48.846;2.322;2022-11-20T13:22:54;7.00;;;5.00;;
62479;SDS011;48526;48.846;2.322;2022-11-20T13:25:40;2.75;;;2.50;;
62479;SDS011;48526;48.846;2.322;2022-11-20T13:30:33;6.00;;;6.00;;
62479;SDS011;48526;48.846;2.322;2022-11-20T13:33:07;7.75;;;7.75;;
62479;SDS011;48526;48.846;2.322;2022-11-20T13:35:41;5.00;;;5.00;;
62479;SDS011;48526;48.846;2.322;2022-11-20T13:40:35;7.50;;;6.00;;
62479;SDS011;48526;48.846;2.322;2022-11-20T13:43:48;5.75;;;3.00;;
62479;SDS011;48526;48.846;2.322;2022-11-20T13:45:55;6.00;;;5.25;;
62479;SDS011;48526;48.846;2.322;2022-11-20T13:48:23;7.00;;;7.00;;
62479;SDS011;48526;48.846;2.322;2022-11-20T13:50:54;8.00;;;6.50;;
62479;SDS011;48526;48.846;2.322;2022-11-20T13:53:46;8.75;;;7.75;;
62479;SDS011;48526;48.846;2.322;2022-11-20T13:59:08;8.00;;;6.50;;
62479;SDS011;48526;48.846;2.322;2022-11-20T14:01:57;9.75;;;8.00;;
62479;SDS011;48526;48.846;2.322;2022-11-20T14:04:26;9.75;;;9.75;;
62479;SDS011;48526;48.846;2.322;2022-11-20T14:06:54;9.50;;;9.50;;
62479;SDS011;48526;48.846;2.322;2022-11-20T14:09:30;8.00;;;8.00;;
62479;SDS011;48526;48.846;2.322;2022-11-20T14:11:57;10.50;;;10.00;;
62479;SDS011;48526;48.846;2.322;2022-11-20T14:14:26;7.75;;;6.50;;
62479;SDS011;48526;48.846;2.322;2022-11-20T14:20:00;7.50;;;7.00;;
62479;SDS011;48526;48.846;2.322;2022-11-20T14:22:27;10.25;;;5.00;;
62479;SDS011;48526;48.846;2.322;2022-11-20T14:27:37;9.50;;;7.00;;
62479;SDS011;48526;48.846;2.322;2022-11-20T14:30:17;10.50;;;7.25;;
62479;SDS011;48526;48.846;2.322;2022-11-20T14:32:44;4.50;;;4.00;;
62479;SDS011;48526;48.846;2.322;2022-11-20T14:35:14;7.75;;;6.75;;
62479;SDS011;48526;48.846;2.322;2022-11-20T14:37:45;8.75;;;7.75;;
62479;SDS011;48526;48.846;2.322;2022-11-20T14:43:17;5.00;;;2.00;;
62479;SDS011;48526;48.846;2.322;2022-11-20T14:46:07;5.50;;;5.50;;
62479;SDS011;48526;48.846;2.322;2022-11-20T14:48:55;6.50;;;3.00;;
62479;SDS011;48526;48.846;2.322;2022-11-20T14:51:23;3.25;;;0.25;;
62479;SDS011;48526;48.846;2.322;2022-11-20T14:56:41;5.50;;;3.00;;
62479;SDS011;48526;48.846;2.322;2022-11-20T14:59:08;5.50;;;3.25;;
62479;SDS011;48526;48.846;2.322;2022-11-20T15:01:33;6.75;;;5.50;;
62479;SDS011;48526;48.846;2.322;2022-11-20T15:04:07;7.25;;;4.00;;
62479;SDS011;48526;48.846;2.322;2022-11-20T15:06:35;6.00;;;3.00;;
62479;SDS011;48526;48.846;2.322;2022-11-20T15:09:02;9.00;;;4.00;;
62479;SDS011;48526;48.846;2.322;2022-11-20T15:11:29;8.50;;;7.00;;
62479;SDS011;48526;48.846;2.322;2022-11-20T15:13:57;6.00;;;3.75;;
62479;SDS011;48526;48.846;2.322;2022-11-20T15:16:23;2.00;;;2.00;;
62479;SDS011;48526;48.846;2.322;2022-11-20T15:18:51;7.25;;;4.00;;
62479;SDS011;48526;48.846;2.322;2022-11-20T15:21:18;3.25;;;3.25;;
62479;SDS011;48526;48.846;2.322;2022-11-20T15:23:45;8.00;;;4.00;;
62479;SDS011;48526;48.846;2.322;2022-11-20T15:26:12;2.50;;;1.50;;
62479;SDS011;48526;48.846;2.322;2022-11-20T15:28:42;3.50;;;3.50;;
62479;SDS011;48526;48.846;2.322;2022-11-20T15:31:12;9.75;;;6.00;;
62479;SDS011;48526;48.846;2.322;2022-11-20T15:33:38;8.25;;;5.00;;
62479;SDS011;48526;48.846;2.322;2022-11-20T15:36:04;6.00;;;6.00;;
62479;SDS011;48526;48.846;2.322;2022-11-20T15:38:29;3.00;;;3.00;;
62479;SDS011;48526;48.846;2.322;2022-11-20T15:40:55;6.00;;;4.00;;
62479;SDS011;48526;48.846;2.322;2022-11-20T15:43:21;5.00;;;3.00;;
62479;SDS011;48526;48.846;2.322;2022-11-20T15:45:47;6.50;;;2.25;;
62479;SDS011;48526;48.846;2.322;2022-11-20T15:48:16;6.50;;;3.25;;
62479;SDS011;48526;48.846;2.322;2022-11-20T15:50:51;5.50;;;3.00;;
62479;SDS011;48526;48.846;2.322;2022-11-20T15:53:28;6.25;;;3.00;;
62479;SDS011;48526;48.846;2.322;2022-11-20T15:55:54;3.00;;;2.00;;
62479;SDS011;48526;48.846;2.322;2022-11-20T15:58:19;3.00;;;3.00;;
62479;SDS011;48526;48.846;2.322;2022-11-20T16:00:45;5.00;;;2.25;;
62479;SDS011;48526;48.846;2.322;2022-11-20T16:03:11;6.50;;;2.00;;
62479;SDS011;48526;48.846;2.322;2022-11-20T16:05:37;7.00;;;4.00;;
62479;SDS011;48526;48.846;2.322;2022-11-20T16:08:02;2.00;;;1.00;;
62479;SDS011;48526;48.846;2.322;2022-11-20T16:10:28;7.00;;;2.25;;
62479;SDS011;48526;48.846;2.322;2022-11-20T16:12:53;2.75;;;1.50;;
62479;SDS011;48526;48.846;2.322;2022-11-20T16:15:37;2.00;;;2.00;;
62479;SDS011;48526;48.846;2.322;2022-11-20T16:18:14;4.25;;;2.50;;
62479;SDS011;48526;48.846;2.322;2022-11-20T16:20:41;2.00;;;1.50;;
62479;SDS011;48526;48.846;2.322;2022-11-20T16:23:06;1.75;;;1.75;;
62479;SDS011;48526;48.846;2.322;2022-11-20T16:25:32;5.00;;;2.00;;
62479;SDS011;48526;48.846;2.322;2022-11-20T16:27:58;6.50;;;4.00;;
62479;SDS011;48526;48.846;2.322;2022-11-20T16:30:23;2.75;;;2.75;;
62479;SDS011;48526;48.846;2.322;2022-11-20T16:32:48;3.50;;;2.75;;
62479;SDS011;48526;48.846;2.322;2022-11-20T16:35:14;3.00;;;2.00;;
62479;SDS011;48526;48.846;2.322;2022-11-20T16:37:39;3.75;;;2.75;;
62479;SDS011;48526;48.846;2.322;2022-11-20T16:40:05;4.25;;;2.50;;
62479;SDS011;48526;48.846;2.322;2022-11-20T16:42:34;7.50;;;4.50;;
62479;SDS011;48526;48.846;2.322;2022-11-20T16:45:00;5.25;;;3.00;;
62479;SDS011;48526;48.846;2.322;2022-11-20T16:47:26;5.50;;;3.00;;
62479;SDS011;48526;48.846;2.322;2022-11-20T16:49:51;4.25;;;2.75;;
62479;SDS011;48526;48.846;2.322;2022-11-20T16:52:16;2.00;;;2.00;;
62479;SDS011;48526;48.846;2.322;2022-11-20T16:54:42;6.00;;;4.25;;
62479;SDS011;48526;48.846;2.322;2022-11-20T16:57:07;6.50;;;4.25;;
62479;SDS011;48526;48.846;2.322;2022-11-20T16:59:32;7.00;;;5.50;;
62479;SDS011;48526;48.846;2.322;2022-11-20T17:01:58;7.50;;;4.25;;
62479;SDS011;48526;48.846;2.322;2022-11-20T17:04:23;5.00;;;4.50;;
62479;SDS011;48526;48.846;2.322;2022-11-20T17:06:49;5.75;;;3.25;;
62479;SDS011;48526;48.846;2.322;2022-11-20T17:09:14;6.75;;;2.50;;
62479;SDS011;48526;48.846;2.322;2022-11-20T17:11:40;2.00;;;2.00;;
62479;SDS011;48526;48.846;2.322;2022-11-20T17:14:05;3.75;;;2.25;;
62479;SDS011;48526;48.846;2.322;2022-11-20T17:16:34;6.75;;;5.25;;
62479;SDS011;48526;48.846;2.322;2022-11-20T17:19:00;8.00;;;6.00;;
62479;SDS011;48526;48.846;2.322;2022-11-20T17:21:27;12.25;;;10.00;;
62479;SDS011;48526;48.846;2.322;2022-11-20T17:23:53;6.00;;;5.50;;
62479;SDS011;48526;48.846;2.322;2022-11-20T17:26:22;4.75;;;4.75;;
62479;SDS011;48526;48.846;2.322;2022-11-20T17:28:54;6.25;;;4.25;;
62479;SDS011;48526;48.846;2.322;2022-11-20T17:31:30;8.50;;;6.00;;
62479;SDS011;48526;48.846;2.322;2022-11-20T17:33:57;10.25;;;8.00;;
62479;SDS011;48526;48.846;2.322;2022-11-20T17:36:26;6.00;;;6.00;;
62479;SDS011;48526;48.846;2.322;2022-11-20T17:38:53;8.00;;;7.00;;
62479;SDS011;48526;48.846;2.322;2022-11-20T17:41:20;10.00;;;8.00;;
62479;SDS011;48526;48.846;2.322;2022-11-20T17:43:47;10.75;;;7.00;;
62479;SDS011;48526;48.846;2.322;2022-11-20T17:46:16;7.00;;;5.25;;
62479;SDS011;48526;48.846;2.322;2022-11-20T17:48:44;11.75;;;9.75;;
62479;SDS011;48526;48.846;2.322;2022-11-20T17:51:11;8.00;;;6.00;;
62479;SDS011;48526;48.846;2.322;2022-11-20T17:53:38;7.25;;;6.25;;
62479;SDS011;48526;48.846;2.322;2022-11-20T17:56:05;6.25;;;6.25;;
62479;SDS011;48526;48.846;2.322;2022-11-20T17:58:49;9.00;;;6.50;;
62479;SDS011;48526;48.846;2.322;2022-11-20T18:01:15;6.25;;;4.25;;
62479;SDS011;48526;48.846;2.322;2022-11-20T18:03:41;8.75;;;6.50;;
62479;SDS011;48526;48.846;2.322;2022-11-20T18:06:10;11.75;;;10.00;;
62479;SDS011;48526;48.846;2.322;2022-11-20T18:08:36;7.25;;;7.25;;
62479;SDS011;48526;48.846;2.322;2022-11-20T18:11:09;1.00;;;1.00;;
62479;SDS011;48526;48.846;2.322;2022-11-20T18:13:39;8.25;;;7.50;;
62479;SDS011;48526;48.846;2.322;2022-11-20T18:16:23;10.50;;;9.00;;
62479;SDS011;48526;48.846;2.322;2022-11-20T18:18:48;14.25;;;12.00;;
62479;SDS011;48526;48.846;2.322;2022-11-20T18:21:14;9.25;;;8.00;;
62479;SDS011;48526;48.846;2.322;2022-11-20T18:23:39;11.00;;;6.75;;
62479;SDS011;48526;48.846;2.322;2022-11-20T18:26:07;11.75;;;8.75;;
62479;SDS011;48526;48.846;2.322;2022-11-20T18:28:55;11.25;;;9.25;;
62479;SDS011;48526;48.846;2.322;2022-11-20T18:31:21;10.50;;;9.75;;
62479;SDS011;48526;48.846;2.322;2022-11-20T18:33:55;6.00;;;6.00;;
62479;SDS011;48526;48.846;2.322;2022-11-20T18:36:22;11.00;;;8.50;;
62479;SDS011;48526;48.846;2.322;2022-11-20T18:38:51;13.75;;;8.50;;
62479;SDS011;48526;48.846;2.322;2022-11-20T18:41:20;7.00;;;7.00;;
62479;SDS011;48526;48.846;2.322;2022-11-20T18:44:06;12.00;;;8.75;;
62479;SDS011;48526;48.846;2.322;2022-11-20T18:46:54;11.25;;;10.25;;
62479;SDS011;48526;48.846;2.322;2022-11-20T18:49:20;8.00;;;7.00;;
62479;SDS011;48526;48.846;2.322;2022-11-20T18:51:45;11.00;;;7.75;;
62479;SDS011;48526;48.846;2.322;2022-11-20T18:54:11;10.50;;;9.25;;
62479;SDS011;48526;48.846;2.322;2022-11-20T18:56:36;10.25;;;9.25;;
62479;SDS011;48526;48.846;2.322;2022-11-20T18:59:02;11.00;;;11.00;;
62479;SDS011;48526;48.846;2.322;2022-11-20T19:01:29;11.75;;;7.00;;
62479;SDS011;48526;48.846;2.322;2022-11-20T19:03:54;7.00;;;6.50;;
62479;SDS011;48526;48.846;2.322;2022-11-20T19:06:20;10.00;;;7.00;;
62479;SDS011;48526;48.846;2.322;2022-11-20T19:08:45;9.00;;;6.00;;
62479;SDS011;48526;48.846;2.322;2022-11-20T19:11:11;6.25;;;5.00;;
62479;SDS011;48526;48.846;2.322;2022-11-20T19:13:37;7.50;;;6.75;;
62479;SDS011;48526;48.846;2.322;2022-11-20T19:16:21;12.00;;;9.25;;
62479;SDS011;48526;48.846;2.322;2022-11-20T19:18:47;2.25;;;2.25;;
62479;SDS011;48526;48.846;2.322;2022-11-20T19:21:13;6.75;;;6.00;;
62479;SDS011;48526;48.846;2.322;2022-11-20T19:23:40;6.25;;;6.25;;
62479;SDS011;48526;48.846;2.322;2022-11-20T19:26:07;10.00;;;7.00;;
62479;SDS011;48526;48.846;2.322;2022-11-20T19:28:33;8.50;;;7.50;;
62479;SDS011;48526;48.846;2.322;2022-11-20T19:31:07;6.50;;;5.00;;
62479;SDS011;48526;48.846;2.322;2022-11-20T19:33:36;12.00;;;7.50;;
62479;SDS011;48526;48.846;2.322;2022-11-20T19:36:15;7.25;;;6.50;;
62479;SDS011;48526;48.846;2.322;2022-11-20T19:38:46;10.25;;;6.00;;
62479;SDS011;48526;48.846;2.322;2022-11-20T19:41:13;11.50;;;8.00;;
62479;SDS011;48526;48.846;2.322;2022-11-20T19:43:40;10.50;;;7.75;;
62479;SDS011;48526;48.846;2.322;2022-11-20T19:46:05;9.25;;;7.75;;
62479;SDS011;48526;48.846;2.322;2022-11-20T19:48:31;15.25;;;6.75;;
62479;SDS011;48526;48.846;2.322;2022-11-20T19:50:57;9.25;;;7.50;;
62479;SDS011;48526;48.846;2.322;2022-11-20T19:53:23;11.00;;;6.25;;
62479;SDS011;48526;48.846;2.322;2022-11-20T19:55:55;9.25;;;6.75;;
62479;SDS011;48526;48.846;2.322;2022-11-20T19:58:22;11.25;;;7.00;;
62479;SDS011;48526;48.846;2.322;2022-11-20T20:00:48;7.75;;;6.25;;
62479;SDS011;48526;48.846;2.322;2022-11-20T20:03:13;10.75;;;5.75;;
62479;SDS011;48526;48.846;2.322;2022-11-20T20:05:38;9.00;;;5.75;;
62479;SDS011;48526;48.846;2.322;2022-11-20T20:08:04;6.00;;;6.00;;
62479;SDS011;48526;48.846;2.322;2022-11-20T20:10:29;10.50;;;6.00;;
62479;SDS011;48526;48.846;2.322;2022-11-20T20:12:54;7.50;;;6.25;;
62479;SDS011;48526;48.846;2.322;2022-11-20T20:15:20;9.50;;;5.75;;
62479;SDS011;48526;48.846;2.322;2022-11-20T20:17:45;5.50;;;5.00;;
62479;SDS011;48526;48.846;2.322;2022-11-20T20:20:11;7.50;;;7.00;;
62479;SDS011;48526;48.846;2.322;2022-11-20T20:22:36;10.25;;;4.00;;
62479;SDS011;48526;48.846;2.322;2022-11-20T20:25:01;5.75;;;5.00;;
62479;SDS011;48526;48.846;2.322;2022-11-20T20:27:27;6.50;;;6.50;;
62479;SDS011;48526;48.846;2.322;2022-11-20T20:29:52;9.50;;;3.00;;
62479;SDS011;48526;48.846;2.322;2022-11-20T20:32:18;4.00;;;4.00;;
62479;SDS011;48526;48.846;2.322;2022-11-20T20:34:43;6.50;;;6.25;;
62479;SDS011;48526;48.846;2.322;2022-11-20T20:37:08;6.75;;;4.75;;
62479;SDS011;48526;48.846;2.322;2022-11-20T20:39:34;8.00;;;7.25;;
62479;SDS011;48526;48.846;2.322;2022-11-20T20:41:59;4.00;;;4.00;;
62479;SDS011;48526;48.846;2.322;2022-11-20T20:44:24;5.25;;;2.75;;
62479;SDS011;48526;48.846;2.322;2022-11-20T20:47:08;5.00;;;3.00;;
62479;SDS011;48526;48.846;2.322;2022-11-20T20:49:34;6.00;;;3.00;;
62479;SDS011;48526;48.846;2.322;2022-11-20T20:51:59;5.50;;;5.25;;
62479;SDS011;48526;48.846;2.322;2022-11-20T20:54:26;5.00;;;3.00;;
62479;SDS011;48526;48.846;2.322;2022-11-20T20:56:51;6.75;;;5.00;;